sensor_id;sensor_type;location;lat;lon;timestamp;P1;durP1;ratioP1;P2;durP2;ratioP2
81591;SDS011;71014;53.394;6.724;2023-07-29T00:01:18;13.27;;;9.82;;
81591;SDS011;71014;53.394;6.724;2023-07-29T00:03:44;15.10;;;10.13;;
81591;SDS011;71014;53.394;6.724;2023-07-29T00:06:10;12.27;;;9.68;;
81591;SDS011;71014;53.394;6.724;2023-07-29T00:08:36;16.55;;;9.07;;
81591;SDS011;71014;53.394;6.724;2023-07-29T00:11:02;14.35;;;9.57;;
81591;SDS011;71014;53.394;6.724;2023-07-29T00:13:28;19.65;;;9.77;;
81591;SDS011;71014;53.394;6.724;2023-07-29T00:15:55;13.93;;;9.10;;
81591;SDS011;71014;53.394;6.724;2023-07-29T00:18:21;16.35;;;9.20;;
81591;SDS011;71014;53.394;6.724;2023-07-29T00:20:47;15.45;;;10.13;;
81591;SDS011;71014;53.394;6.724;2023-07-29T00:23:13;12.98;;;8.57;;
81591;SDS011;71014;53.394;6.724;2023-07-29T00:25:39;14.75;;;8.85;;
81591;SDS011;71014;53.394;6.724;2023-07-29T00:28:05;13.77;;;9.55;;
81591;SDS011;71014;53.394;6.724;2023-07-29T00:30:31;14.18;;;8.00;;
81591;SDS011;71014;53.394;6.724;2023-07-29T00:32:57;14.30;;;9.07;;
81591;SDS011;71014;53.394;6.724;2023-07-29T00:35:23;11.20;;;8.30;;
81591;SDS011;71014;53.394;6.724;2023-07-29T00:37:49;10.68;;;7.68;;
81591;SDS011;71014;53.394;6.724;2023-07-29T00:40:18;13.90;;;8.85;;
81591;SDS011;71014;53.394;6.724;2023-07-29T00:42:44;12.30;;;6.63;;
81591;SDS011;71014;53.394;6.724;2023-07-29T00:45:10;11.07;;;7.60;;
81591;SDS011;71014;53.394;6.724;2023-07-29T00:47:37;10.23;;;7.47;;
81591;SDS011;71014;53.394;6.724;2023-07-29T00:50:03;11.10;;;7.28;;
81591;SDS011;71014;53.394;6.724;2023-07-29T00:52:29;9.93;;;6.88;;
81591;SDS011;71014;53.394;6.724;2023-07-29T00:54:55;11.63;;;7.45;;
81591;SDS011;71014;53.394;6.724;2023-07-29T00:57:21;12.32;;;7.25;;
81591;SDS011;71014;53.394;6.724;2023-07-29T00:59:50;10.00;;;6.72;;
81591;SDS011;71014;53.394;6.724;2023-07-29T01:02:16;11.98;;;7.45;;
81591;SDS011;71014;53.394;6.724;2023-07-29T01:04:42;12.48;;;7.53;;
81591;SDS011;71014;53.394;6.724;2023-07-29T01:07:14;11.13;;;7.57;;
81591;SDS011;71014;53.394;6.724;2023-07-29T01:09:49;12.60;;;8.23;;
81591;SDS011;71014;53.394;6.724;2023-07-29T01:12:19;11.80;;;6.90;;
81591;SDS011;71014;53.394;6.724;2023-07-29T01:14:55;11.73;;;7.47;;
81591;SDS011;71014;53.394;6.724;2023-07-29T01:17:28;11.90;;;7.53;;
81591;SDS011;71014;53.394;6.724;2023-07-29T01:19:59;9.93;;;5.90;;
81591;SDS011;71014;53.394;6.724;2023-07-29T01:22:30;7.55;;;6.10;;
81591;SDS011;71014;53.394;6.724;2023-07-29T01:24:58;13.48;;;7.40;;
81591;SDS011;71014;53.394;6.724;2023-07-29T01:27:24;8.73;;;6.60;;
81591;SDS011;71014;53.394;6.724;2023-07-29T01:29:50;9.18;;;6.55;;
81591;SDS011;71014;53.394;6.724;2023-07-29T01:34:54;9.82;;;6.95;;
81591;SDS011;71014;53.394;6.724;2023-07-29T01:37:22;10.43;;;7.13;;
81591;SDS011;71014;53.394;6.724;2023-07-29T01:39:51;10.65;;;7.93;;
81591;SDS011;71014;53.394;6.724;2023-07-29T01:42:20;10.10;;;7.30;;
81591;SDS011;71014;53.394;6.724;2023-07-29T01:44:46;15.25;;;8.32;;
81591;SDS011;71014;53.394;6.724;2023-07-29T01:47:12;12.63;;;7.43;;
81591;SDS011;71014;53.394;6.724;2023-07-29T01:49:38;7.05;;;5.97;;
81591;SDS011;71014;53.394;6.724;2023-07-29T01:52:04;13.32;;;7.57;;
81591;SDS011;71014;53.394;6.724;2023-07-29T01:54:30;10.00;;;6.97;;
81591;SDS011;71014;53.394;6.724;2023-07-29T01:56:56;13.35;;;6.43;;
81591;SDS011;71014;53.394;6.724;2023-07-29T01:59:22;11.60;;;6.65;;
81591;SDS011;71014;53.394;6.724;2023-07-29T02:01:48;11.93;;;7.93;;
81591;SDS011;71014;53.394;6.724;2023-07-29T02:04:14;9.98;;;6.78;;
81591;SDS011;71014;53.394;6.724;2023-07-29T02:06:40;13.02;;;7.93;;
81591;SDS011;71014;53.394;6.724;2023-07-29T02:09:06;9.05;;;7.25;;
81591;SDS011;71014;53.394;6.724;2023-07-29T02:11:32;12.40;;;7.63;;
81591;SDS011;71014;53.394;6.724;2023-07-29T02:13:58;10.27;;;6.85;;
81591;SDS011;71014;53.394;6.724;2023-07-29T02:16:24;11.38;;;7.13;;
81591;SDS011;71014;53.394;6.724;2023-07-29T02:18:50;8.07;;;5.80;;
81591;SDS011;71014;53.394;6.724;2023-07-29T02:21:17;9.35;;;7.13;;
81591;SDS011;71014;53.394;6.724;2023-07-29T02:23:43;9.68;;;6.90;;
81591;SDS011;71014;53.394;6.724;2023-07-29T02:26:09;10.23;;;7.00;;
81591;SDS011;71014;53.394;6.724;2023-07-29T02:33:46;11.02;;;8.13;;
81591;SDS011;71014;53.394;6.724;2023-07-29T02:36:12;10.27;;;7.40;;
81591;SDS011;71014;53.394;6.724;2023-07-29T02:38:39;10.80;;;6.22;;
81591;SDS011;71014;53.394;6.724;2023-07-29T02:41:05;11.77;;;7.60;;
81591;SDS011;71014;53.394;6.724;2023-07-29T02:43:31;11.95;;;7.05;;
81591;SDS011;71014;53.394;6.724;2023-07-29T02:45:57;9.15;;;7.13;;
81591;SDS011;71014;53.394;6.724;2023-07-29T02:48:24;10.00;;;6.65;;
81591;SDS011;71014;53.394;6.724;2023-07-29T02:50:50;11.25;;;6.60;;
81591;SDS011;71014;53.394;6.724;2023-07-29T02:53:17;11.90;;;8.02;;
81591;SDS011;71014;53.394;6.724;2023-07-29T02:55:42;9.90;;;6.88;;
81591;SDS011;71014;53.394;6.724;2023-07-29T02:58:08;10.90;;;7.20;;
81591;SDS011;71014;53.394;6.724;2023-07-29T03:00:35;11.43;;;6.97;;
81591;SDS011;71014;53.394;6.724;2023-07-29T03:03:01;11.43;;;7.85;;
81591;SDS011;71014;53.394;6.724;2023-07-29T03:05:27;8.98;;;6.88;;
81591;SDS011;71014;53.394;6.724;2023-07-29T03:07:53;10.00;;;6.93;;
81591;SDS011;71014;53.394;6.724;2023-07-29T03:10:19;12.80;;;7.03;;
81591;SDS011;71014;53.394;6.724;2023-07-29T03:12:46;10.65;;;7.05;;
81591;SDS011;71014;53.394;6.724;2023-07-29T03:15:12;12.93;;;7.82;;
81591;SDS011;71014;53.394;6.724;2023-07-29T03:17:38;10.18;;;7.72;;
81591;SDS011;71014;53.394;6.724;2023-07-29T03:20:04;12.68;;;7.10;;
81591;SDS011;71014;53.394;6.724;2023-07-29T03:22:30;12.38;;;7.32;;
81591;SDS011;71014;53.394;6.724;2023-07-29T03:24:56;9.20;;;6.55;;
81591;SDS011;71014;53.394;6.724;2023-07-29T03:27:22;11.95;;;7.90;;
81591;SDS011;71014;53.394;6.724;2023-07-29T03:29:48;9.68;;;6.75;;
81591;SDS011;71014;53.394;6.724;2023-07-29T03:32:14;10.73;;;6.68;;
81591;SDS011;71014;53.394;6.724;2023-07-29T03:34:40;11.98;;;8.27;;
81591;SDS011;71014;53.394;6.724;2023-07-29T03:37:06;10.13;;;7.45;;
81591;SDS011;71014;53.394;6.724;2023-07-29T03:39:32;9.40;;;6.45;;
81591;SDS011;71014;53.394;6.724;2023-07-29T03:41:59;10.25;;;6.88;;
81591;SDS011;71014;53.394;6.724;2023-07-29T03:44:24;9.90;;;6.82;;
81591;SDS011;71014;53.394;6.724;2023-07-29T03:46:51;10.30;;;6.85;;
81591;SDS011;71014;53.394;6.724;2023-07-29T03:49:17;11.80;;;7.68;;
81591;SDS011;71014;53.394;6.724;2023-07-29T03:51:43;10.93;;;6.82;;
81591;SDS011;71014;53.394;6.724;2023-07-29T03:54:09;10.38;;;7.22;;
81591;SDS011;71014;53.394;6.724;2023-07-29T03:56:36;11.70;;;8.00;;
81591;SDS011;71014;53.394;6.724;2023-07-29T03:59:03;12.52;;;7.65;;
81591;SDS011;71014;53.394;6.724;2023-07-29T04:01:29;11.90;;;7.63;;
81591;SDS011;71014;53.394;6.724;2023-07-29T04:03:56;8.45;;;6.75;;
81591;SDS011;71014;53.394;6.724;2023-07-29T04:06:22;12.15;;;7.97;;
81591;SDS011;71014;53.394;6.724;2023-07-29T04:08:48;11.70;;;7.32;;
81591;SDS011;71014;53.394;6.724;2023-07-29T04:11:14;12.75;;;8.10;;
81591;SDS011;71014;53.394;6.724;2023-07-29T04:13:40;13.02;;;7.20;;
81591;SDS011;71014;53.394;6.724;2023-07-29T04:16:06;11.68;;;7.88;;
81591;SDS011;71014;53.394;6.724;2023-07-29T04:18:32;13.20;;;7.57;;
81591;SDS011;71014;53.394;6.724;2023-07-29T04:20:58;13.70;;;8.15;;
81591;SDS011;71014;53.394;6.724;2023-07-29T04:23:24;13.00;;;7.15;;
81591;SDS011;71014;53.394;6.724;2023-07-29T04:25:50;12.52;;;7.13;;
81591;SDS011;71014;53.394;6.724;2023-07-29T04:28:17;11.18;;;6.68;;
81591;SDS011;71014;53.394;6.724;2023-07-29T04:30:43;13.98;;;7.22;;
81591;SDS011;71014;53.394;6.724;2023-07-29T04:33:09;11.07;;;7.25;;
81591;SDS011;71014;53.394;6.724;2023-07-29T04:35:35;11.27;;;7.45;;
81591;SDS011;71014;53.394;6.724;2023-07-29T04:38:00;12.20;;;7.32;;
81591;SDS011;71014;53.394;6.724;2023-07-29T04:40:26;10.05;;;6.32;;
81591;SDS011;71014;53.394;6.724;2023-07-29T04:42:52;8.18;;;6.00;;
81591;SDS011;71014;53.394;6.724;2023-07-29T04:45:19;9.48;;;6.78;;
81591;SDS011;71014;53.394;6.724;2023-07-29T04:47:45;10.55;;;5.80;;
81591;SDS011;71014;53.394;6.724;2023-07-29T04:50:11;11.00;;;5.78;;
81591;SDS011;71014;53.394;6.724;2023-07-29T04:52:37;9.60;;;5.78;;
81591;SDS011;71014;53.394;6.724;2023-07-29T04:55:03;10.45;;;6.38;;
81591;SDS011;71014;53.394;6.724;2023-07-29T04:57:29;11.68;;;5.60;;
81591;SDS011;71014;53.394;6.724;2023-07-29T04:59:55;9.75;;;6.38;;
81591;SDS011;71014;53.394;6.724;2023-07-29T05:02:21;9.65;;;6.22;;
81591;SDS011;71014;53.394;6.724;2023-07-29T05:04:47;8.98;;;5.72;;
81591;SDS011;71014;53.394;6.724;2023-07-29T05:07:13;9.48;;;5.65;;
81591;SDS011;71014;53.394;6.724;2023-07-29T05:09:39;10.38;;;5.80;;
81591;SDS011;71014;53.394;6.724;2023-07-29T05:12:05;10.05;;;5.53;;
81591;SDS011;71014;53.394;6.724;2023-07-29T05:14:31;8.85;;;5.55;;
81591;SDS011;71014;53.394;6.724;2023-07-29T05:16:57;10.40;;;4.40;;
81591;SDS011;71014;53.394;6.724;2023-07-29T05:19:23;6.10;;;3.75;;
81591;SDS011;71014;53.394;6.724;2023-07-29T05:21:49;7.60;;;4.18;;
81591;SDS011;71014;53.394;6.724;2023-07-29T05:24:15;9.13;;;4.65;;
81591;SDS011;71014;53.394;6.724;2023-07-29T05:26:41;6.43;;;4.10;;
81591;SDS011;71014;53.394;6.724;2023-07-29T05:29:07;10.63;;;4.47;;
81591;SDS011;71014;53.394;6.724;2023-07-29T05:31:33;7.07;;;4.25;;
81591;SDS011;71014;53.394;6.724;2023-07-29T05:33:59;6.72;;;3.30;;
81591;SDS011;71014;53.394;6.724;2023-07-29T05:36:25;6.05;;;3.80;;
81591;SDS011;71014;53.394;6.724;2023-07-29T05:38:51;6.60;;;4.20;;
81591;SDS011;71014;53.394;6.724;2023-07-29T05:41:18;5.93;;;3.50;;
81591;SDS011;71014;53.394;6.724;2023-07-29T05:43:44;5.63;;;3.33;;
81591;SDS011;71014;53.394;6.724;2023-07-29T05:46:10;7.40;;;3.22;;
81591;SDS011;71014;53.394;6.724;2023-07-29T05:48:36;6.28;;;3.88;;
81591;SDS011;71014;53.394;6.724;2023-07-29T05:51:02;6.55;;;3.83;;
81591;SDS011;71014;53.394;6.724;2023-07-29T05:53:30;8.70;;;3.63;;
81591;SDS011;71014;53.394;6.724;2023-07-29T05:55:56;6.20;;;3.40;;
81591;SDS011;71014;53.394;6.724;2023-07-29T05:58:22;7.55;;;3.63;;
81591;SDS011;71014;53.394;6.724;2023-07-29T06:00:48;6.90;;;3.17;;
81591;SDS011;71014;53.394;6.724;2023-07-29T06:03:14;6.78;;;3.90;;
81591;SDS011;71014;53.394;6.724;2023-07-29T06:05:40;6.32;;;3.88;;
81591;SDS011;71014;53.394;6.724;2023-07-29T06:08:06;8.48;;;3.35;;
81591;SDS011;71014;53.394;6.724;2023-07-29T06:10:33;7.93;;;3.15;;
81591;SDS011;71014;53.394;6.724;2023-07-29T06:13:00;7.10;;;3.40;;
81591;SDS011;71014;53.394;6.724;2023-07-29T06:15:26;4.65;;;3.17;;
81591;SDS011;71014;53.394;6.724;2023-07-29T06:17:52;4.38;;;3.28;;
81591;SDS011;71014;53.394;6.724;2023-07-29T06:20:18;6.45;;;3.28;;
81591;SDS011;71014;53.394;6.724;2023-07-29T06:22:44;5.90;;;3.65;;
81591;SDS011;71014;53.394;6.724;2023-07-29T06:25:10;5.53;;;3.28;;
81591;SDS011;71014;53.394;6.724;2023-07-29T06:27:36;4.22;;;2.78;;
81591;SDS011;71014;53.394;6.724;2023-07-29T06:30:02;6.22;;;3.25;;
81591;SDS011;71014;53.394;6.724;2023-07-29T06:32:28;8.60;;;3.65;;
81591;SDS011;71014;53.394;6.724;2023-07-29T06:34:54;3.72;;;2.78;;
81591;SDS011;71014;53.394;6.724;2023-07-29T06:37:20;6.18;;;3.35;;
81591;SDS011;71014;53.394;6.724;2023-07-29T06:42:12;4.90;;;2.92;;
81591;SDS011;71014;53.394;6.724;2023-07-29T06:44:39;3.92;;;3.35;;
81591;SDS011;71014;53.394;6.724;2023-07-29T06:47:05;6.95;;;2.63;;
81591;SDS011;71014;53.394;6.724;2023-07-29T06:49:32;5.80;;;2.50;;
81591;SDS011;71014;53.394;6.724;2023-07-29T06:51:58;7.03;;;2.75;;
81591;SDS011;71014;53.394;6.724;2023-07-29T06:54:24;7.30;;;3.15;;
81591;SDS011;71014;53.394;6.724;2023-07-29T06:56:53;6.40;;;3.28;;
81591;SDS011;71014;53.394;6.724;2023-07-29T06:59:19;8.18;;;2.70;;
81591;SDS011;71014;53.394;6.724;2023-07-29T07:01:45;4.90;;;3.00;;
81591;SDS011;71014;53.394;6.724;2023-07-29T07:04:11;3.95;;;2.55;;
81591;SDS011;71014;53.394;6.724;2023-07-29T07:06:37;7.82;;;3.45;;
81591;SDS011;71014;53.394;6.724;2023-07-29T07:09:03;6.65;;;3.08;;
81591;SDS011;71014;53.394;6.724;2023-07-29T07:11:29;4.57;;;2.85;;
81591;SDS011;71014;53.394;6.724;2023-07-29T07:13:55;6.40;;;3.30;;
81591;SDS011;71014;53.394;6.724;2023-07-29T07:16:21;6.50;;;3.08;;
81591;SDS011;71014;53.394;6.724;2023-07-29T07:18:47;9.50;;;3.08;;
81591;SDS011;71014;53.394;6.724;2023-07-29T07:21:13;8.27;;;3.05;;
81591;SDS011;71014;53.394;6.724;2023-07-29T07:23:39;9.25;;;2.85;;
81591;SDS011;71014;53.394;6.724;2023-07-29T07:26:05;9.10;;;3.20;;
81591;SDS011;71014;53.394;6.724;2023-07-29T07:28:31;7.57;;;2.58;;
81591;SDS011;71014;53.394;6.724;2023-07-29T07:30:57;8.90;;;2.92;;
81591;SDS011;71014;53.394;6.724;2023-07-29T07:33:24;6.20;;;3.08;;
81591;SDS011;71014;53.394;6.724;2023-07-29T07:35:50;6.20;;;3.42;;
81591;SDS011;71014;53.394;6.724;2023-07-29T07:38:16;6.05;;;3.60;;
81591;SDS011;71014;53.394;6.724;2023-07-29T07:40:43;3.90;;;2.58;;
81591;SDS011;71014;53.394;6.724;2023-07-29T07:43:09;8.57;;;3.65;;
81591;SDS011;71014;53.394;6.724;2023-07-29T07:45:35;7.13;;;3.38;;
81591;SDS011;71014;53.394;6.724;2023-07-29T07:48:01;8.10;;;4.00;;
81591;SDS011;71014;53.394;6.724;2023-07-29T07:50:29;8.95;;;3.58;;
81591;SDS011;71014;53.394;6.724;2023-07-29T07:52:55;6.63;;;3.83;;
81591;SDS011;71014;53.394;6.724;2023-07-29T07:55:21;4.85;;;3.10;;
81591;SDS011;71014;53.394;6.724;2023-07-29T07:57:47;6.10;;;3.22;;
81591;SDS011;71014;53.394;6.724;2023-07-29T08:00:13;4.47;;;3.22;;
81591;SDS011;71014;53.394;6.724;2023-07-29T08:02:40;5.18;;;3.83;;
81591;SDS011;71014;53.394;6.724;2023-07-29T08:05:07;8.57;;;3.13;;
81591;SDS011;71014;53.394;6.724;2023-07-29T08:07:33;6.15;;;3.85;;
81591;SDS011;71014;53.394;6.724;2023-07-29T08:09:59;6.38;;;2.95;;
81591;SDS011;71014;53.394;6.724;2023-07-29T08:12:25;3.20;;;2.65;;
81591;SDS011;71014;53.394;6.724;2023-07-29T08:14:51;5.18;;;2.88;;
81591;SDS011;71014;53.394;6.724;2023-07-29T08:17:17;5.70;;;2.83;;
81591;SDS011;71014;53.394;6.724;2023-07-29T08:19:43;5.60;;;3.05;;
81591;SDS011;71014;53.394;6.724;2023-07-29T08:22:09;8.75;;;3.20;;
81591;SDS011;71014;53.394;6.724;2023-07-29T08:24:35;4.75;;;2.70;;
81591;SDS011;71014;53.394;6.724;2023-07-29T08:29:27;6.40;;;3.00;;
81591;SDS011;71014;53.394;6.724;2023-07-29T08:31:53;6.75;;;2.72;;
81591;SDS011;71014;53.394;6.724;2023-07-29T08:34:20;7.30;;;2.85;;
81591;SDS011;71014;53.394;6.724;2023-07-29T08:36:46;4.47;;;2.70;;
81591;SDS011;71014;53.394;6.724;2023-07-29T08:39:12;4.88;;;3.22;;
81591;SDS011;71014;53.394;6.724;2023-07-29T08:44:23;6.20;;;2.45;;
81591;SDS011;71014;53.394;6.724;2023-07-29T08:46:49;3.33;;;2.03;;
81591;SDS011;71014;53.394;6.724;2023-07-29T08:49:18;4.88;;;1.90;;
81591;SDS011;71014;53.394;6.724;2023-07-29T08:51:44;6.90;;;2.55;;
81591;SDS011;71014;53.394;6.724;2023-07-29T08:54:11;4.35;;;2.05;;
81591;SDS011;71014;53.394;6.724;2023-07-29T08:56:38;3.50;;;1.63;;
81591;SDS011;71014;53.394;6.724;2023-07-29T09:01:30;4.15;;;2.28;;
81591;SDS011;71014;53.394;6.724;2023-07-29T09:03:56;4.75;;;2.40;;
81591;SDS011;71014;53.394;6.724;2023-07-29T09:06:22;5.85;;;2.90;;
81591;SDS011;71014;53.394;6.724;2023-07-29T09:08:50;3.72;;;2.13;;
81591;SDS011;71014;53.394;6.724;2023-07-29T09:11:17;3.35;;;2.10;;
81591;SDS011;71014;53.394;6.724;2023-07-29T09:13:44;5.88;;;2.13;;
81591;SDS011;71014;53.394;6.724;2023-07-29T09:16:10;5.30;;;1.80;;
81591;SDS011;71014;53.394;6.724;2023-07-29T09:18:36;3.47;;;2.42;;
81591;SDS011;71014;53.394;6.724;2023-07-29T09:21:02;6.32;;;2.35;;
81591;SDS011;71014;53.394;6.724;2023-07-29T09:23:28;6.90;;;2.10;;
81591;SDS011;71014;53.394;6.724;2023-07-29T09:26:04;5.10;;;2.40;;
81591;SDS011;71014;53.394;6.724;2023-07-29T09:30:56;6.47;;;2.08;;
81591;SDS011;71014;53.394;6.724;2023-07-29T09:33:25;4.47;;;1.85;;
81591;SDS011;71014;53.394;6.724;2023-07-29T09:35:51;3.80;;;1.60;;
81591;SDS011;71014;53.394;6.724;2023-07-29T09:38:17;2.42;;;1.65;;
81591;SDS011;71014;53.394;6.724;2023-07-29T09:40:43;3.92;;;1.60;;
81591;SDS011;71014;53.394;6.724;2023-07-29T09:43:10;8.50;;;2.13;;
81591;SDS011;71014;53.394;6.724;2023-07-29T09:45:36;3.75;;;1.50;;
81591;SDS011;71014;53.394;6.724;2023-07-29T09:48:03;5.07;;;1.90;;
81591;SDS011;71014;53.394;6.724;2023-07-29T09:50:34;2.30;;;1.27;;
81591;SDS011;71014;53.394;6.724;2023-07-29T09:55:27;3.25;;;1.50;;
81591;SDS011;71014;53.394;6.724;2023-07-29T09:57:57;6.07;;;1.60;;
81591;SDS011;71014;53.394;6.724;2023-07-29T10:00:29;4.25;;;1.58;;
81591;SDS011;71014;53.394;6.724;2023-07-29T10:02:55;3.97;;;2.03;;
81591;SDS011;71014;53.394;6.724;2023-07-29T10:05:21;4.05;;;1.55;;
81591;SDS011;71014;53.394;6.724;2023-07-29T10:07:48;2.53;;;1.20;;
81591;SDS011;71014;53.394;6.724;2023-07-29T10:10:15;3.17;;;1.48;;
81591;SDS011;71014;53.394;6.724;2023-07-29T10:15:08;3.90;;;1.23;;
81591;SDS011;71014;53.394;6.724;2023-07-29T10:17:34;2.30;;;1.30;;
81591;SDS011;71014;53.394;6.724;2023-07-29T10:20:01;2.30;;;1.35;;
81591;SDS011;71014;53.394;6.724;2023-07-29T10:22:28;3.75;;;1.40;;
81591;SDS011;71014;53.394;6.724;2023-07-29T10:24:56;3.22;;;1.27;;
81591;SDS011;71014;53.394;6.724;2023-07-29T10:27:25;1.65;;;1.00;;
81591;SDS011;71014;53.394;6.724;2023-07-29T10:29:52;1.98;;;1.00;;
81591;SDS011;71014;53.394;6.724;2023-07-29T10:32:22;2.53;;;1.15;;
81591;SDS011;71014;53.394;6.724;2023-07-29T10:34:49;4.78;;;1.60;;
81591;SDS011;71014;53.394;6.724;2023-07-29T10:37:15;2.85;;;1.10;;
81591;SDS011;71014;53.394;6.724;2023-07-29T10:39:44;2.33;;;0.88;;
81591;SDS011;71014;53.394;6.724;2023-07-29T10:42:17;4.32;;;1.10;;
81591;SDS011;71014;53.394;6.724;2023-07-29T10:44:50;5.22;;;1.23;;
81591;SDS011;71014;53.394;6.724;2023-07-29T10:47:20;1.88;;;1.05;;
81591;SDS011;71014;53.394;6.724;2023-07-29T10:49:47;3.17;;;1.40;;
81591;SDS011;71014;53.394;6.724;2023-07-29T10:52:14;1.95;;;0.80;;
81591;SDS011;71014;53.394;6.724;2023-07-29T10:54:42;2.45;;;1.02;;
81591;SDS011;71014;53.394;6.724;2023-07-29T10:57:12;3.75;;;1.35;;
81591;SDS011;71014;53.394;6.724;2023-07-29T10:59:38;4.18;;;1.00;;
81591;SDS011;71014;53.394;6.724;2023-07-29T11:02:11;2.63;;;1.02;;
81591;SDS011;71014;53.394;6.724;2023-07-29T11:04:46;1.88;;;1.10;;
81591;SDS011;71014;53.394;6.724;2023-07-29T11:14:30;1.33;;;0.88;;
81591;SDS011;71014;53.394;6.724;2023-07-29T11:21:47;2.53;;;1.10;;
81591;SDS011;71014;53.394;6.724;2023-07-29T11:24:17;4.32;;;1.30;;
81591;SDS011;71014;53.394;6.724;2023-07-29T11:26:46;2.20;;;1.05;;
81591;SDS011;71014;53.394;6.724;2023-07-29T11:29:12;2.95;;;1.20;;
81591;SDS011;71014;53.394;6.724;2023-07-29T11:34:06;3.03;;;1.30;;
81591;SDS011;71014;53.394;6.724;2023-07-29T11:36:32;3.50;;;1.25;;
81591;SDS011;71014;53.394;6.724;2023-07-29T11:41:24;4.68;;;1.27;;
81591;SDS011;71014;53.394;6.724;2023-07-29T11:43:50;2.88;;;1.63;;
81591;SDS011;71014;53.394;6.724;2023-07-29T11:46:20;4.03;;;1.38;;
81591;SDS011;71014;53.394;6.724;2023-07-29T11:48:46;4.97;;;1.58;;
81591;SDS011;71014;53.394;6.724;2023-07-29T11:51:12;1.52;;;0.77;;
81591;SDS011;71014;53.394;6.724;2023-07-29T11:53:38;1.95;;;0.90;;
81591;SDS011;71014;53.394;6.724;2023-07-29T11:56:04;1.15;;;0.82;;
81591;SDS011;71014;53.394;6.724;2023-07-29T11:58:30;2.60;;;0.82;;
81591;SDS011;71014;53.394;6.724;2023-07-29T12:00:57;2.00;;;1.52;;
81591;SDS011;71014;53.394;6.724;2023-07-29T12:03:23;1.40;;;0.73;;
81591;SDS011;71014;53.394;6.724;2023-07-29T12:08:15;2.17;;;0.88;;
81591;SDS011;71014;53.394;6.724;2023-07-29T12:10:41;2.50;;;1.20;;
81591;SDS011;71014;53.394;6.724;2023-07-29T12:13:08;2.50;;;1.40;;
81591;SDS011;71014;53.394;6.724;2023-07-29T12:15:34;2.45;;;1.30;;
81591;SDS011;71014;53.394;6.724;2023-07-29T12:18:00;3.35;;;1.52;;
81591;SDS011;71014;53.394;6.724;2023-07-29T12:20:26;3.15;;;1.55;;
81591;SDS011;71014;53.394;6.724;2023-07-29T12:25:19;7.35;;;2.05;;
81591;SDS011;71014;53.394;6.724;2023-07-29T12:27:46;7.00;;;1.77;;
81591;SDS011;71014;53.394;6.724;2023-07-29T12:30:12;4.72;;;1.75;;
81591;SDS011;71014;53.394;6.724;2023-07-29T12:32:45;3.85;;;1.70;;
81591;SDS011;71014;53.394;6.724;2023-07-29T12:37:37;4.50;;;1.83;;
81591;SDS011;71014;53.394;6.724;2023-07-29T12:40:07;4.55;;;1.85;;
81591;SDS011;71014;53.394;6.724;2023-07-29T12:44:59;2.67;;;1.23;;
81591;SDS011;71014;53.394;6.724;2023-07-29T12:47:25;2.00;;;1.20;;
81591;SDS011;71014;53.394;6.724;2023-07-29T12:49:51;2.28;;;1.40;;
81591;SDS011;71014;53.394;6.724;2023-07-29T12:52:17;2.08;;;1.33;;
81591;SDS011;71014;53.394;6.724;2023-07-29T12:54:43;2.28;;;1.23;;
81591;SDS011;71014;53.394;6.724;2023-07-29T12:57:09;1.70;;;1.20;;
81591;SDS011;71014;53.394;6.724;2023-07-29T12:59:35;3.10;;;1.90;;
81591;SDS011;71014;53.394;6.724;2023-07-29T13:02:01;4.07;;;1.38;;
81591;SDS011;71014;53.394;6.724;2023-07-29T13:04:27;1.38;;;1.20;;
81591;SDS011;71014;53.394;6.724;2023-07-29T13:06:53;3.47;;;1.48;;
81591;SDS011;71014;53.394;6.724;2023-07-29T13:09:19;2.80;;;1.42;;
81591;SDS011;71014;53.394;6.724;2023-07-29T13:11:46;4.07;;;1.25;;
81591;SDS011;71014;53.394;6.724;2023-07-29T13:14:12;2.97;;;1.30;;
81591;SDS011;71014;53.394;6.724;2023-07-29T13:19:04;3.10;;;1.48;;
81591;SDS011;71014;53.394;6.724;2023-07-29T13:21:30;2.53;;;1.20;;
81591;SDS011;71014;53.394;6.724;2023-07-29T13:23:56;1.98;;;1.20;;
81591;SDS011;71014;53.394;6.724;2023-07-29T13:26:22;2.28;;;1.20;;
81591;SDS011;71014;53.394;6.724;2023-07-29T13:28:48;4.80;;;1.13;;
81591;SDS011;71014;53.394;6.724;2023-07-29T13:31:14;3.88;;;1.80;;
81591;SDS011;71014;53.394;6.724;2023-07-29T13:33:40;3.30;;;1.35;;
81591;SDS011;71014;53.394;6.724;2023-07-29T13:36:06;4.72;;;1.58;;
81591;SDS011;71014;53.394;6.724;2023-07-29T13:38:33;3.28;;;1.20;;
81591;SDS011;71014;53.394;6.724;2023-07-29T13:40:59;6.68;;;1.20;;
81591;SDS011;71014;53.394;6.724;2023-07-29T13:43:25;5.78;;;1.52;;
81591;SDS011;71014;53.394;6.724;2023-07-29T13:45:51;2.90;;;1.55;;
81591;SDS011;71014;53.394;6.724;2023-07-29T13:48:17;1.83;;;1.30;;
81591;SDS011;71014;53.394;6.724;2023-07-29T13:50:44;4.63;;;1.10;;
81591;SDS011;71014;53.394;6.724;2023-07-29T13:53:10;2.70;;;1.38;;
81591;SDS011;71014;53.394;6.724;2023-07-29T13:55:36;3.05;;;1.25;;
81591;SDS011;71014;53.394;6.724;2023-07-29T13:58:02;1.90;;;1.23;;
81591;SDS011;71014;53.394;6.724;2023-07-29T14:00:28;2.75;;;1.08;;
81591;SDS011;71014;53.394;6.724;2023-07-29T14:02:54;3.20;;;1.50;;
81591;SDS011;71014;53.394;6.724;2023-07-29T14:07:46;4.25;;;1.02;;
81591;SDS011;71014;53.394;6.724;2023-07-29T14:12:38;2.65;;;1.40;;
81591;SDS011;71014;53.394;6.724;2023-07-29T14:17:31;2.03;;;1.30;;
81591;SDS011;71014;53.394;6.724;2023-07-29T14:19:57;4.15;;;1.60;;
81591;SDS011;71014;53.394;6.724;2023-07-29T14:22:23;5.60;;;1.42;;
81591;SDS011;71014;53.394;6.724;2023-07-29T14:24:49;5.15;;;1.67;;
81591;SDS011;71014;53.394;6.724;2023-07-29T14:29:42;2.03;;;1.40;;
81591;SDS011;71014;53.394;6.724;2023-07-29T14:32:08;3.85;;;1.48;;
81591;SDS011;71014;53.394;6.724;2023-07-29T14:34:34;3.10;;;1.27;;
81591;SDS011;71014;53.394;6.724;2023-07-29T14:37:00;3.05;;;1.80;;
81591;SDS011;71014;53.394;6.724;2023-07-29T14:39:26;3.63;;;1.40;;
81591;SDS011;71014;53.394;6.724;2023-07-29T14:41:52;3.53;;;1.55;;
81591;SDS011;71014;53.394;6.724;2023-07-29T14:44:18;2.33;;;1.30;;
81591;SDS011;71014;53.394;6.724;2023-07-29T14:46:44;5.65;;;1.80;;
81591;SDS011;71014;53.394;6.724;2023-07-29T14:49:10;3.90;;;1.50;;
81591;SDS011;71014;53.394;6.724;2023-07-29T14:51:36;3.80;;;1.38;;
81591;SDS011;71014;53.394;6.724;2023-07-29T14:54:02;2.17;;;1.10;;
81591;SDS011;71014;53.394;6.724;2023-07-29T14:56:28;3.58;;;1.50;;
81591;SDS011;71014;53.394;6.724;2023-07-29T14:58:54;3.35;;;1.58;;
81591;SDS011;71014;53.394;6.724;2023-07-29T15:01:20;5.35;;;1.23;;
81591;SDS011;71014;53.394;6.724;2023-07-29T15:03:46;2.92;;;1.83;;
81591;SDS011;71014;53.394;6.724;2023-07-29T15:06:12;1.80;;;1.40;;
81591;SDS011;71014;53.394;6.724;2023-07-29T15:08:38;3.55;;;1.48;;
81591;SDS011;71014;53.394;6.724;2023-07-29T15:11:04;2.65;;;1.70;;
81591;SDS011;71014;53.394;6.724;2023-07-29T15:13:30;4.50;;;1.60;;
81591;SDS011;71014;53.394;6.724;2023-07-29T15:15:56;2.67;;;1.20;;
81591;SDS011;71014;53.394;6.724;2023-07-29T15:18:22;2.55;;;1.70;;
81591;SDS011;71014;53.394;6.724;2023-07-29T15:20:48;4.18;;;1.60;;
81591;SDS011;71014;53.394;6.724;2023-07-29T15:23:15;3.13;;;1.40;;
81591;SDS011;71014;53.394;6.724;2023-07-29T15:25:41;4.53;;;1.48;;
81591;SDS011;71014;53.394;6.724;2023-07-29T15:28:07;2.83;;;1.55;;
81591;SDS011;71014;53.394;6.724;2023-07-29T15:30:35;2.95;;;1.70;;
81591;SDS011;71014;53.394;6.724;2023-07-29T15:33:01;4.78;;;1.65;;
81591;SDS011;71014;53.394;6.724;2023-07-29T15:35:28;3.75;;;1.77;;
81591;SDS011;71014;53.394;6.724;2023-07-29T15:37:54;4.50;;;1.40;;
81591;SDS011;71014;53.394;6.724;2023-07-29T15:40:20;1.30;;;1.08;;
81591;SDS011;71014;53.394;6.724;2023-07-29T15:42:46;2.75;;;1.50;;